Time;durP1;ratioP1;P1;durP2;ratioP2;P2;SDS_P1;SDS_P2;PMS_P1;PMS_P2;Temp;Humidity;BMP_temperature;BMP_pressure;BME280_temperature;BME280_humidity;BME280_pressure;Samples;Min_cycle;Max_cycle;Signal;HPM_P1;HPM_P2
2022/04/27 00:01:52;;;;;;;;;;;;;;;15.88;74.77;99709.47;4949952;28;19956;-85
2022/04/27 00:04:18;;;;;;;;;;;;;;;16.04;74.31;99707.09;4949697;28;19953;-85
2022/04/27 00:06:43;;;;;;;;;;;;;;;16.15;73.75;99706.69;4950509;28;19914;-85
2022/04/27 00:09:08;;;;;;;;;;;;;;;16.19;73.91;99702.13;4950095;28;19929;-84
2022/04/27 00:11:34;;;;;;;;;;;;;;;16.22;73.11;99705.56;4950203;28;19926;-85
2022/04/27 00:14:00;;;;;;;;;;;;;;;16.26;73.19;99706.28;4950088;28;20491;-85
2022/04/27 00:16:26;;;;;;;;;;;;;;;16.13;73.91;99705.91;4948553;29;19945;-85
2022/04/27 00:18:51;;;;;;;;;;;;;;;16.28;73.06;99699.09;4950341;28;19926;-84
2022/04/27 00:21:17;;;;;;;;;;;;;;;16.34;72.67;99698.00;4950130;28;20016;-84
2022/04/27 00:23:43;;;;;;;;;;;;;;;16.32;72.79;99694.56;4950463;28;19934;-84
2022/04/27 00:26:09;;;;;;;;;;;;;;;16.32;72.79;99702.53;4949728;28;19918;-85
2022/04/27 00:28:34;;;;;;;;;;;;;;;16.20;73.23;99693.22;4948999;28;19922;-85
2022/04/27 00:31:00;;;;;;;;;;;;;;;16.17;73.48;99690.69;4949645;28;20013;-85
2022/04/27 00:33:25;;;;;;;;;;;;;;;16.22;73.03;99694.00;4950066;28;20325;-85
2022/04/27 00:35:51;;;;;;;;;;;;;;;16.25;73.46;99689.47;4948909;28;20365;-85
2022/04/27 00:38:16;;;;;;;;;;;;;;;16.18;73.27;99690.63;4948114;29;19922;-85
2022/04/27 00:40:41;;;;;;;;;;;;;;;16.13;73.07;99694.38;4948863;28;19926;-85
2022/04/27 00:43:07;;;;;;;;;;;;;;;16.16;73.11;99695.13;4949431;28;19922;-84
2022/04/27 00:45:32;;;;;;;;;;;;;;;16.16;72.88;99695.13;4949090;28;20009;-85
2022/04/27 00:47:57;;;;;;;;;;;;;;;15.83;74.42;99692.78;4948811;28;19922;-85
2022/04/27 00:50:23;;;;;;;;;;;;;;;16.04;73.16;99688.47;4949122;28;20316;-85
2022/04/27 00:52:49;;;;;;;;;;;;;;;15.64;75.28;99689.91;4947959;28;20021;-85
2022/04/27 00:55:15;;;;;;;;;;;;;;;15.47;76.65;99689.66;4949214;28;19925;-85
2022/04/27 00:57:40;;;;;;;;;;;;;;;15.51;76.83;99692.16;4949021;28;19918;-84
2022/04/27 01:00:07;;;;;;;;;;;;;;;15.63;75.75;99684.66;4949016;28;20595;-84
2022/04/27 01:02:33;;;;;;;;;;;;;;;15.39;77.32;99685.47;4949265;28;20073;-84
2022/04/27 01:04:59;;;;;;;;;;;;;;;15.46;77.04;99688.78;4949826;28;20005;-84
2022/04/27 01:07:24;;;;;;;;;;;;;;;15.66;75.72;99689.84;4948544;28;20456;-85
2022/04/27 01:09:50;;;;;;;;;;;;;;;15.51;75.76;99685.97;4948913;28;20038;-84
2022/04/27 01:12:15;;;;;;;;;;;;;;;15.44;76.69;99677.31;4948029;28;19926;-84
2022/04/27 01:14:41;;;;;;;;;;;;;;;15.18;77.20;99679.13;4948235;28;19944;-84
2022/04/27 01:17:06;;;;;;;;;;;;;;;15.25;77.05;99681.56;4948822;28;19953;-84
2022/04/27 01:19:32;;;;;;;;;;;;;;;15.09;77.66;99689.16;4948896;28;19910;-84
2022/04/27 01:21:57;;;;;;;;;;;;;;;15.05;78.41;99691.06;4948943;28;19927;-84
2022/04/27 01:24:26;;;;;;;;;;;;;;;14.88;79.33;99680.16;4948678;28;19922;-84
2022/04/27 01:26:52;;;;;;;;;;;;;;;14.72;80.76;99678.00;4949075;28;19926;-84
2022/04/27 01:29:19;;;;;;;;;;;;;;;14.56;81.53;99680.22;4948625;28;19929;-85
2022/04/27 01:31:44;;;;;;;;;;;;;;;14.47;82.71;99673.44;4949129;28;19918;-85
2022/04/27 01:34:10;;;;;;;;;;;;;;;14.31;83.72;99680.97;4949351;28;20017;-84
2022/04/27 01:36:36;;;;;;;;;;;;;;;14.32;83.13;99680.06;4948457;28;19929;-85
2022/04/27 01:39:01;;;;;;;;;;;;;;;14.29;84.00;99681.97;4949192;28;19989;-85
2022/04/27 01:41:27;;;;;;;;;;;;;;;14.36;83.68;99674.66;4948584;28;19919;-84
2022/04/27 01:43:52;;;;;;;;;;;;;;;14.37;83.06;99677.28;4947704;28;19922;-85
2022/04/27 01:46:17;;;;;;;;;;;;;;;14.24;83.96;99675.91;4948760;29;19926;-84
2022/04/27 01:48:43;;;;;;;;;;;;;;;14.23;84.39;99677.69;4946989;29;19973;-84
2022/04/27 01:51:09;;;;;;;;;;;;;;;14.19;84.55;99681.34;4948800;28;20020;-85
2022/04/27 01:56:18;;;;;;;;;;;;;;;14.21;84.06;99676.88;4948741;29;19965;-84
2022/04/27 01:58:45;;;;;;;;;;;;;;;14.36;82.50;99677.31;4948521;28;19922;-85
2022/04/27 02:01:11;;;;;;;;;;;;;;;14.24;83.12;99679.44;4948452;28;19922;-85
2022/04/27 02:03:37;;;;;;;;;;;;;;;14.38;82.47;99672.81;4948719;29;20336;-85
2022/04/27 02:06:02;;;;;;;;;;;;;;;14.38;82.23;99676.38;4950545;28;19918;-85
2022/04/27 02:08:27;;;;;;;;;;;;;;;14.06;84.44;99670.25;4948944;28;19914;-85
2022/04/27 02:10:52;;;;;;;;;;;;;;;14.33;82.77;99667.66;4948345;28;19922;-85
2022/04/27 02:13:18;;;;;;;;;;;;;;;14.54;80.90;99671.44;4948714;28;19910;-85
2022/04/27 02:15:44;;;;;;;;;;;;;;;14.48;80.77;99667.19;4948749;28;19922;-85
2022/04/27 02:18:09;;;;;;;;;;;;;;;14.65;79.77;99665.81;4948477;28;19918;-85
2022/04/27 02:20:35;;;;;;;;;;;;;;;14.56;79.70;99669.59;4948141;28;19923;-85
2022/04/27 02:23:00;;;;;;;;;;;;;;;14.48;80.04;99672.50;4951531;28;19981;-85
2022/04/27 02:25:25;;;;;;;;;;;;;;;14.64;79.21;99666.72;4952152;28;20521;-85
2022/04/27 02:27:51;;;;;;;;;;;;;;;14.67;79.32;99671.94;4951934;28;19926;-84
2022/04/27 02:30:18;;;;;;;;;;;;;;;14.41;79.99;99670.06;4951716;28;19973;-84
2022/04/27 02:32:45;;;;;;;;;;;;;;;14.36;79.73;99672.88;4951725;28;20423;-85
2022/04/27 02:35:11;;;;;;;;;;;;;;;14.53;78.92;99676.78;4952107;28;20282;-85
2022/04/27 02:37:37;;;;;;;;;;;;;;;14.49;78.69;99663.63;4952083;28;19922;-85
2022/04/27 02:40:03;;;;;;;;;;;;;;;14.59;79.09;99668.63;4950917;28;19929;-85
2022/04/27 02:42:29;;;;;;;;;;;;;;;14.43;78.69;99670.91;4951875;28;19918;-85
2022/04/27 02:44:58;;;;;;;;;;;;;;;14.51;77.76;99672.41;4951158;28;20384;-85
2022/04/27 02:47:23;;;;;;;;;;;;;;;14.53;78.52;99675.00;4951221;28;19926;-85
2022/04/27 02:52:33;;;;;;;;;;;;;;;14.40;77.51;99673.66;4951594;29;20010;-85
2022/04/27 02:54:58;;;;;;;;;;;;;;;14.28;77.45;99673.09;4951535;28;20001;-84
2022/04/27 02:57:24;;;;;;;;;;;;;;;14.10;77.95;99677.22;4951328;28;19973;-85
2022/04/27 02:59:49;;;;;;;;;;;;;;;14.16;77.88;99670.84;4951240;28;19929;-85
2022/04/27 03:02:14;;;;;;;;;;;;;;;14.23;76.98;99676.84;4942681;28;19985;-87
2022/04/27 03:04:40;;;;;;;;;;;;;;;14.18;76.50;99676.09;4949979;28;19930;-87
2022/04/27 03:07:06;;;;;;;;;;;;;;;14.14;77.20;99673.53;4951413;28;20009;-85
2022/04/27 03:09:31;;;;;;;;;;;;;;;13.99;77.37;99675.78;4951461;28;19946;-86
2022/04/27 03:11:56;;;;;;;;;;;;;;;13.87;78.85;99677.00;4951476;28;19918;-88
2022/04/27 03:14:22;;;;;;;;;;;;;;;13.95;78.38;99675.00;4950729;29;19914;-88
2022/04/27 03:16:49;;;;;;;;;;;;;;;14.05;78.02;99681.75;4952141;28;19968;-85
2022/04/27 03:19:14;;;;;;;;;;;;;;;14.08;77.41;99678.16;4951173;28;19918;-86
2022/04/27 03:21:40;;;;;;;;;;;;;;;14.09;77.58;99678.13;4950993;28;20435;-84
2022/04/27 03:24:05;;;;;;;;;;;;;;;14.16;77.25;99681.44;4951396;28;19964;-85
2022/04/27 03:26:30;;;;;;;;;;;;;;;13.84;78.79;99679.72;4951374;28;19925;-85
2022/04/27 03:28:56;;;;;;;;;;;;;;;14.03;78.77;99690.69;4951532;28;19962;-84
2022/04/27 03:31:21;;;;;;;;;;;;;;;14.22;77.84;99688.34;4951231;28;19969;-86
2022/04/27 03:33:46;;;;;;;;;;;;;;;14.29;77.47;99689.91;4950358;28;20462;-87
2022/04/27 03:36:12;;;;;;;;;;;;;;;14.33;77.17;99694.19;4951103;28;19914;-85
2022/04/27 03:38:38;;;;;;;;;;;;;;;14.30;76.68;99704.91;4950713;28;19918;-85
2022/04/27 03:41:03;;;;;;;;;;;;;;;14.30;76.54;99702.25;4950604;28;19973;-85
2022/04/27 03:43:29;;;;;;;;;;;;;;;14.28;76.46;99704.94;4950050;28;19922;-86
2022/04/27 03:45:54;;;;;;;;;;;;;;;14.25;76.64;99706.84;4951666;28;19925;-87
2022/04/27 03:48:19;;;;;;;;;;;;;;;14.33;75.76;99710.13;4951933;28;19922;-86
2022/04/27 03:50:45;;;;;;;;;;;;;;;14.28;76.17;99704.09;4950262;28;19919;-90
2022/04/27 03:53:10;;;;;;;;;;;;;;;14.30;76.56;99707.56;4950231;28;19922;-85
2022/04/27 03:55:35;;;;;;;;;;;;;;;14.33;76.18;99704.81;4948715;28;19918;-89
2022/04/27 03:58:04;;;;;;;;;;;;;;;14.51;75.92;99712.22;4948796;29;19918;-89
2022/04/27 04:00:30;;;;;;;;;;;;;;;14.55;75.84;99720.06;4950502;28;19918;-86
2022/04/27 04:02:57;;;;;;;;;;;;;;;14.48;75.44;99719.41;4949787;29;19929;-87
2022/04/27 04:05:22;;;;;;;;;;;;;;;14.55;75.78;99720.97;4951139;28;19921;-88
2022/04/27 04:07:48;;;;;;;;;;;;;;;14.58;75.65;99715.56;4948609;29;19918;-88
2022/04/27 04:10:13;;;;;;;;;;;;;;;14.53;75.64;99717.47;4956459;28;19923;-86
2022/04/27 04:12:38;;;;;;;;;;;;;;;14.55;76.12;99718.31;4965643;29;19922;-86
2022/04/27 04:15:04;;;;;;;;;;;;;;;14.58;76.01;99712.91;4965786;28;19914;-86
2022/04/27 04:17:30;;;;;;;;;;;;;;;14.61;76.91;99720.81;4962123;28;20411;-85
2022/04/27 04:19:55;;;;;;;;;;;;;;;14.72;76.57;99725.78;4936098;28;19958;-86
2022/04/27 04:22:20;;;;;;;;;;;;;;;14.88;76.37;99727.94;4969271;28;20455;-87
2022/04/27 04:30:13;;;;;;;;;;;;;;;15.03;77.51;99727.44;4970436;28;19969;-87
2022/04/27 04:32:40;;;;;;;;;;;;;;;15.15;77.10;99724.41;4970002;28;19933;-87
2022/04/27 04:35:06;;;;;;;;;;;;;;;15.21;76.26;99728.59;4968405;28;20328;-88
2022/04/27 04:37:31;;;;;;;;;;;;;;;15.18;76.63;99728.72;4964983;28;19996;-87
2022/04/27 04:39:57;;;;;;;;;;;;;;;15.33;76.92;99732.66;4950016;29;20598;-85
2022/04/27 04:42:22;;;;;;;;;;;;;;;15.13;77.03;99746.59;4950309;28;20498;-87
2022/04/27 04:44:47;;;;;;;;;;;;;;;14.96;77.97;99742.69;4948715;28;20336;-87
2022/04/27 04:47:13;;;;;;;;;;;;;;;15.24;76.81;99751.56;4949047;28;19997;-87
2022/04/27 04:49:38;;;;;;;;;;;;;;;15.25;77.10;99746.19;4947565;28;19918;-87
2022/04/27 04:52:03;;;;;;;;;;;;;;;14.85;78.16;99761.63;4948658;28;20416;-87
2022/04/27 04:54:29;;;;;;;;;;;;;;;15.39;77.58;99743.94;4948767;28;19919;-87
2022/04/27 04:56:54;;;;;;;;;;;;;;;15.18;77.13;99752.63;4947543;28;19925;-87
2022/04/27 04:59:19;;;;;;;;;;;;;;;15.32;77.63;99753.06;4949497;28;19961;-87
2022/04/27 05:01:45;;;;;;;;;;;;;;;15.31;78.63;99755.78;4949728;29;19918;-87
2022/04/27 05:04:10;;;;;;;;;;;;;;;15.48;78.02;99753.41;4949406;28;20282;-87
2022/04/27 05:06:35;;;;;;;;;;;;;;;15.64;76.85;99752.88;4949936;28;20365;-86
2022/04/27 05:09:01;;;;;;;;;;;;;;;15.55;77.49;99754.03;4949847;28;19922;-87
2022/04/27 05:11:26;;;;;;;;;;;;;;;15.93;75.81;99758.03;4949432;28;20286;-87
2022/04/27 05:13:51;;;;;;;;;;;;;;;16.08;75.22;99753.97;4948810;28;19989;-89
2022/04/27 05:16:16;;;;;;;;;;;;;;;15.91;75.17;99759.91;4949322;28;19922;-87
2022/04/27 05:18:43;;;;;;;;;;;;;;;15.98;76.66;99757.03;4949410;28;19914;-89
2022/04/27 05:21:08;;;;;;;;;;;;;;;16.22;75.10;99756.13;4947802;28;19922;-87
2022/04/27 05:23:33;;;;;;;;;;;;;;;16.41;75.21;99760.75;4949406;28;20381;-86
2022/04/27 05:25:59;;;;;;;;;;;;;;;16.49;73.99;99755.13;4947701;28;19923;-87
2022/04/27 05:28:24;;;;;;;;;;;;;;;16.80;73.03;99752.97;4947915;28;19918;-88
2022/04/27 05:33:34;;;;;;;;;;;;;;;16.45;74.70;99757.03;4947621;29;19941;-90
2022/04/27 05:36:00;;;;;;;;;;;;;;;17.04;73.11;99757.44;4947966;28;20013;-88
2022/04/27 05:38:25;;;;;;;;;;;;;;;17.23;71.85;99762.88;4948176;28;20379;-88
2022/04/27 05:40:50;;;;;;;;;;;;;;;17.27;70.36;99767.13;4948069;28;20951;-88
2022/04/27 05:43:16;;;;;;;;;;;;;;;17.34;69.52;99765.97;4947976;29;20001;-89
2022/04/27 05:45:41;;;;;;;;;;;;;;;17.46;70.17;99769.94;4944127;28;20002;-87
2022/04/27 05:48:07;;;;;;;;;;;;;;;17.77;68.03;99769.47;4944694;28;20408;-86
2022/04/27 05:50:35;;;;;;;;;;;;;;;17.88;67.21;99766.34;4948519;28;20348;-85
2022/04/27 05:53:03;;;;;;;;;;;;;;;17.74;67.66;99764.25;4948984;28;19914;-87
2022/04/27 05:55:28;;;;;;;;;;;;;;;17.78;68.81;99767.66;4947080;28;19961;-85
2022/04/27 05:57:53;;;;;;;;;;;;;;;18.30;67.25;99768.03;4950697;28;19973;-87
2022/04/27 06:00:20;;;;;;;;;;;;;;;18.97;66.77;99773.88;4951497;28;19926;-84
2022/04/27 06:02:46;;;;;;;;;;;;;;;19.00;63.59;99773.72;4952131;28;20001;-85
2022/04/27 06:05:11;;;;;;;;;;;;;;;19.14;63.74;99776.56;4952001;28;20057;-84
2022/04/27 06:07:36;;;;;;;;;;;;;;;19.26;62.77;99779.56;4952466;28;20410;-85
2022/04/27 06:10:06;;;;;;;;;;;;;;;19.42;63.37;99775.19;4952072;28;19914;-85
2022/04/27 06:12:35;;;;;;;;;;;;;;;19.55;62.40;99774.56;4951238;28;20404;-85
2022/04/27 06:15:02;;;;;;;;;;;;;;;19.76;60.07;99776.16;4951572;28;20308;-85
2022/04/27 06:17:27;;;;;;;;;;;;;;;19.64;61.14;99774.97;4952268;28;19985;-85
2022/04/27 06:19:53;;;;;;;;;;;;;;;19.38;61.74;99778.09;4951540;28;20841;-84
2022/04/27 06:22:21;;;;;;;;;;;;;;;19.73;63.42;99773.63;4951407;28;19968;-85
2022/04/27 06:24:46;;;;;;;;;;;;;;;20.14;61.68;99775.09;4951098;28;19922;-84
2022/04/27 06:27:11;;;;;;;;;;;;;;;20.77;59.40;99779.75;4951007;29;19993;-84
2022/04/27 06:29:37;;;;;;;;;;;;;;;20.74;58.98;99778.13;4950497;28;20384;-85
2022/04/27 06:32:02;;;;;;;;;;;;;;;20.96;58.99;99776.91;4951099;28;19981;-85
2022/04/27 06:34:27;;;;;;;;;;;;;;;20.98;58.28;99791.09;4952226;28;19924;-85
2022/04/27 06:36:53;;;;;;;;;;;;;;;21.41;57.97;99785.94;4951087;28;19941;-86
2022/04/27 06:39:18;;;;;;;;;;;;;;;21.78;55.10;99793.63;4951648;28;19918;-85
2022/04/27 06:41:43;;;;;;;;;;;;;;;21.20;55.45;99800.59;4950019;28;19922;-86
2022/04/27 06:44:08;;;;;;;;;;;;;;;20.64;54.90;99795.63;4949604;28;19925;-86
2022/04/27 06:46:34;;;;;;;;;;;;;;;20.39;57.23;99790.75;4951789;28;19925;-86
2022/04/27 06:48:59;;;;;;;;;;;;;;;20.81;56.88;99799.22;4952117;29;19919;-85
2022/04/27 06:51:24;;;;;;;;;;;;;;;21.21;54.80;99796.94;4951808;29;19925;-85
2022/04/27 06:53:50;;;;;;;;;;;;;;;21.08;54.58;99792.25;4951998;29;19914;-86
2022/04/27 06:56:16;;;;;;;;;;;;;;;21.61;54.12;99800.88;4951681;28;19919;-85
2022/04/27 06:58:42;;;;;;;;;;;;;;;22.20;55.21;99804.53;4951077;29;19929;-85
2022/04/27 07:01:07;;;;;;;;;;;;;;;22.85;50.90;99810.31;4950977;28;19918;-85
2022/04/27 07:03:33;;;;;;;;;;;;;;;22.40;52.38;99804.22;4951728;28;19925;-85
2022/04/27 07:05:58;;;;;;;;;;;;;;;22.49;51.23;99802.75;4951490;28;19918;-85
2022/04/27 07:08:24;;;;;;;;;;;;;;;23.20;49.08;99809.91;4949932;28;19922;-85
2022/04/27 07:10:50;;;;;;;;;;;;;;;23.29;49.22;99794.09;4951486;28;19920;-85
2022/04/27 07:13:15;;;;;;;;;;;;;;;23.30;50.31;99801.22;4950210;28;19925;-85
2022/04/27 07:15:40;;;;;;;;;;;;;;;23.56;49.29;99797.63;4951209;28;19919;-85
2022/04/27 07:18:06;;;;;;;;;;;;;;;22.75;48.20;99797.56;4951816;28;20009;-85
2022/04/27 07:20:31;;;;;;;;;;;;;;;22.74;49.59;99798.53;4950936;28;19974;-86
2022/04/27 07:22:56;;;;;;;;;;;;;;;23.44;50.33;99792.22;4951310;28;19914;-85
2022/04/27 07:25:22;;;;;;;;;;;;;;;23.43;47.67;99794.03;4950251;28;20446;-85
2022/04/27 07:27:47;;;;;;;;;;;;;;;23.56;48.03;99789.56;4951305;29;19925;-86
2022/04/27 07:30:13;;;;;;;;;;;;;;;23.35;48.18;99791.00;4950471;28;19918;-86
2022/04/27 07:32:38;;;;;;;;;;;;;;;23.78;46.94;99790.78;4951019;28;19924;-86
2022/04/27 07:35:04;;;;;;;;;;;;;;;23.65;46.65;99789.91;4950410;28;19926;-86
2022/04/27 07:37:30;;;;;;;;;;;;;;;23.38;48.86;99782.72;4950946;28;19914;-86
2022/04/27 07:39:55;;;;;;;;;;;;;;;24.02;48.66;99782.88;4950923;28;19924;-86
2022/04/27 07:42:21;;;;;;;;;;;;;;;23.87;46.73;99782.13;4950826;28;20152;-86
2022/04/27 07:44:46;;;;;;;;;;;;;;;23.52;48.92;99787.19;4950414;28;19934;-85
2022/04/27 07:47:13;;;;;;;;;;;;;;;23.89;46.97;99790.94;4951312;28;19985;-86
2022/04/27 07:49:38;;;;;;;;;;;;;;;24.18;46.65;99785.38;4950606;28;19961;-87
2022/04/27 07:52:04;;;;;;;;;;;;;;;24.37;50.13;99784.06;4951035;29;19957;-86
2022/04/27 07:54:29;;;;;;;;;;;;;;;25.13;45.76;99780.38;4950565;28;19918;-88
2022/04/27 07:56:54;;;;;;;;;;;;;;;25.40;44.15;99773.91;4950860;28;19914;-86
2022/04/27 07:59:20;;;;;;;;;;;;;;;25.42;44.00;99781.88;4950689;28;19915;-88
2022/04/27 08:01:45;;;;;;;;;;;;;;;24.82;44.66;99779.03;4950829;28;19914;-89
2022/04/27 08:04:11;;;;;;;;;;;;;;;24.75;43.92;99778.66;4950229;28;19981;-89
2022/04/27 08:06:36;;;;;;;;;;;;;;;24.82;44.38;99773.66;4950682;28;19918;-88
2022/04/27 08:09:01;;;;;;;;;;;;;;;25.41;44.50;99772.03;4950778;28;19923;-88
2022/04/27 08:11:27;;;;;;;;;;;;;;;25.69;42.25;99768.97;4950103;28;19925;-88
2022/04/27 08:13:52;;;;;;;;;;;;;;;25.27;41.92;99767.66;4950192;28;20803;-87
2022/04/27 08:16:17;;;;;;;;;;;;;;;24.94;41.80;99769.19;4950155;28;20676;-88
2022/04/27 08:18:43;;;;;;;;;;;;;;;25.00;42.93;99763.34;4949718;28;19918;-87
2022/04/27 08:21:14;;;;;;;;;;;;;;;25.08;42.08;99771.72;4950200;29;20014;-88
2022/04/27 08:23:40;;;;;;;;;;;;;;;25.20;42.94;99769.97;4948772;29;19922;-87
2022/04/27 08:26:06;;;;;;;;;;;;;;;24.95;42.74;99768.25;4949622;28;19953;-87
2022/04/27 08:28:31;;;;;;;;;;;;;;;24.81;43.32;99763.84;4950780;28;20384;-87
2022/04/27 08:30:58;;;;;;;;;;;;;;;25.19;44.58;99760.13;4950281;28;19925;-89
2022/04/27 08:33:23;;;;;;;;;;;;;;;24.80;44.71;99762.97;4950325;28;19969;-87
2022/04/27 08:35:49;;;;;;;;;;;;;;;24.68;44.09;99766.56;4950048;28;20812;-88
2022/04/27 08:38:14;;;;;;;;;;;;;;;25.01;44.38;99757.00;4950074;29;20386;-88
2022/04/27 08:40:44;;;;;;;;;;;;;;;25.06;43.78;99756.66;4950048;28;19950;-88
2022/04/27 08:43:12;;;;;;;;;;;;;;;24.95;46.98;99752.06;4950204;28;20380;-89
2022/04/27 08:45:40;;;;;;;;;;;;;;;25.29;45.45;99752.25;4948979;28;20138;-88
2022/04/27 08:48:06;;;;;;;;;;;;;;;25.05;45.60;99747.66;4949644;28;19914;-88
2022/04/27 08:50:31;;;;;;;;;;;;;;;25.59;42.84;99740.09;4949475;28;19918;-88
2022/04/27 08:52:57;;;;;;;;;;;;;;;25.61;43.10;99739.00;4948596;28;20381;-89
2022/04/27 08:55:22;;;;;;;;;;;;;;;25.15;44.75;99737.06;4949125;28;19951;-88
2022/04/27 08:57:48;;;;;;;;;;;;;;;25.58;43.92;99738.34;4949723;28;19969;-88
2022/04/27 09:00:15;;;;;;;;;;;;;;;26.09;40.06;99733.47;4949275;28;19915;-87
2022/04/27 09:02:41;;;;;;;;;;;;;;;26.30;41.60;99737.28;4949755;28;20088;-87
2022/04/27 09:05:09;;;;;;;;;;;;;;;25.80;43.09;99732.16;4949426;28;20024;-87
2022/04/27 09:07:50;;;;;;;;;;;;;;;26.33;41.69;99727.06;4949023;28;20289;-87
2022/04/27 09:10:18;;;;;;;;;;;;;;;26.46;42.00;99726.94;4949600;28;19925;-87
2022/04/27 09:12:45;;;;;;;;;;;;;;;26.17;42.14;99726.59;4949276;28;20304;-87
2022/04/27 09:15:10;;;;;;;;;;;;;;;25.96;43.72;99712.91;4948688;28;19914;-87
2022/04/27 09:23:05;;;;;;;;;;;;;;;24.99;44.76;99718.44;4949436;29;19937;-86
2022/04/27 09:25:35;;;;;;;;;;;;;;;25.05;44.83;99722.53;4948528;28;19923;-87
2022/04/27 09:28:01;;;;;;;;;;;;;;;25.05;44.12;99714.44;4947708;29;20399;-87
2022/04/27 09:30:27;;;;;;;;;;;;;;;25.05;45.37;99711.75;4948554;28;19922;-87
2022/04/27 09:32:52;;;;;;;;;;;;;;;24.93;46.47;99714.41;4948591;28;20013;-87
2022/04/27 09:35:32;;;;;;;;;;;;;;;24.58;46.04;99712.47;4948313;28;19922;-87
2022/04/27 09:38:10;;;;;;;;;;;;;;;24.49;46.31;99708.56;4949470;28;19919;-87
2022/04/27 09:40:42;;;;;;;;;;;;;;;24.36;46.65;99706.84;4948618;28;19918;-87
2022/04/27 09:43:09;;;;;;;;;;;;;;;24.81;45.15;99696.41;4949162;28;20014;-87
2022/04/27 09:45:34;;;;;;;;;;;;;;;24.65;46.27;99704.75;4949159;29;20416;-87
2022/04/27 09:48:03;;;;;;;;;;;;;;;24.99;44.09;99694.16;4949563;28;20005;-87
2022/04/27 09:50:48;;;;;;;;;;;;;;;24.88;46.17;99694.97;4949169;28;19918;-87
2022/04/27 09:53:13;;;;;;;;;;;;;;;25.36;44.93;99691.41;4948806;28;19918;-87
2022/04/27 09:55:52;;;;;;;;;;;;;;;25.83;44.28;99691.41;4948938;28;20405;-87
2022/04/27 09:58:21;;;;;;;;;;;;;;;25.33;44.38;99697.03;4949176;28;19919;-87
2022/04/27 10:00:48;;;;;;;;;;;;;;;25.33;43.63;99691.63;4947854;29;20320;-87
2022/04/27 10:03:15;;;;;;;;;;;;;;;25.67;44.32;99684.50;4948862;28;19930;-87
2022/04/27 10:05:40;;;;;;;;;;;;;;;25.58;43.39;99682.53;4949180;28;19925;-94
2022/04/27 10:08:07;;;;;;;;;;;;;;;25.30;43.04;99686.47;4948922;28;19918;-87
2022/04/27 10:10:32;;;;;;;;;;;;;;;24.92;44.04;99682.97;4948298;28;19922;-88
2022/04/27 10:13:00;;;;;;;;;;;;;;;25.08;44.32;99681.81;4949140;28;20290;-88
2022/04/27 10:15:25;;;;;;;;;;;;;;;25.27;43.09;99671.38;4948723;28;19918;-89
2022/04/27 10:17:50;;;;;;;;;;;;;;;25.10;42.09;99671.78;4948827;28;20375;-89
2022/04/27 10:20:29;;;;;;;;;;;;;;;24.99;42.07;99672.59;4949199;28;19926;-88
2022/04/27 10:23:34;;;;;;;;;;;;;;;24.98;40.26;99668.19;4948972;28;19941;-91
2022/04/27 10:26:07;;;;;;;;;;;;;;;24.91;42.65;99664.22;4928102;28;19918;-89
2022/04/27 10:28:35;;;;;;;;;;;;;;;25.06;40.72;99664.91;4949048;28;20442;-88
2022/04/27 10:31:02;;;;;;;;;;;;;;;24.96;40.81;99665.59;4947580;29;19957;-89
2022/04/27 10:33:47;;;;;;;;;;;;;;;24.65;39.62;99662.50;4946992;29;19969;-87
2022/04/27 10:36:23;;;;;;;;;;;;;;;24.96;42.42;99657.50;4948251;28;19923;-88
2022/04/27 10:39:07;;;;;;;;;;;;;;;25.16;40.03;99655.09;4948517;28;19918;-88
2022/04/27 10:41:32;;;;;;;;;;;;;;;25.46;40.41;99651.06;4948120;28;19961;-87
2022/04/27 10:43:58;;;;;;;;;;;;;;;24.96;40.05;99653.94;4951121;28;20013;-88
2022/04/27 10:46:34;;;;;;;;;;;;;;;24.87;41.17;99651.91;4952177;28;19918;-88
2022/04/27 10:48:59;;;;;;;;;;;;;;;24.79;40.05;99648.00;4951816;28;19969;-87
2022/04/27 10:51:25;;;;;;;;;;;;;;;24.76;42.14;99642.81;4951477;28;19965;-88
2022/04/27 10:53:50;;;;;;;;;;;;;;;24.61;40.42;99647.50;4951988;28;19978;-87
2022/04/27 10:56:25;;;;;;;;;;;;;;;25.00;40.73;99647.34;4950743;29;20336;-87
2022/04/27 10:58:51;;;;;;;;;;;;;;;25.01;41.28;99640.97;4952095;28;19919;-87
2022/04/27 11:01:19;;;;;;;;;;;;;;;25.28;40.06;99645.22;4950684;29;19917;-89
2022/04/27 11:04:05;;;;;;;;;;;;;;;25.09;40.90;99643.09;4964784;28;19915;-85
2022/04/27 11:07:03;;;;;;;;;;;;;;;25.32;39.59;99634.09;4958979;28;19926;-86
2022/04/27 11:09:38;;;;;;;;;;;;;;;25.16;39.75;99631.69;4936738;28;19996;-88
2022/04/27 11:12:05;;;;;;;;;;;;;;;25.32;39.22;99636.81;4957178;28;19938;-88
2022/04/27 11:14:34;;;;;;;;;;;;;;;25.62;38.96;99629.13;4951146;28;19953;-88
2022/04/27 11:17:00;;;;;;;;;;;;;;;25.61;40.10;99630.97;4950226;29;19918;-87
2022/04/27 11:19:37;;;;;;;;;;;;;;;25.32;39.63;99625.16;4952098;28;20408;-88
2022/04/27 11:22:15;;;;;;;;;;;;;;;24.99;40.96;99629.41;4951989;28;19933;-88
2022/04/27 11:24:42;;;;;;;;;;;;;;;25.20;41.27;99621.53;4948845;28;19921;-88
2022/04/27 11:27:29;;;;;;;;;;;;;;;25.33;39.59;99624.16;4946011;29;20009;-86
2022/04/27 11:29:55;;;;;;;;;;;;;;;25.52;39.27;99620.91;4942225;29;19981;-87
2022/04/27 11:32:21;;;;;;;;;;;;;;;25.83;40.81;99622.00;4944717;29;20416;-88
2022/04/27 11:34:47;;;;;;;;;;;;;;;25.47;39.89;99613.16;4939897;28;20013;-87
2022/04/27 11:37:18;;;;;;;;;;;;;;;25.23;39.17;99615.03;4945777;28;20008;-89
2022/04/27 11:39:45;;;;;;;;;;;;;;;25.38;37.72;99605.78;4941721;29;19918;-89
2022/04/27 11:42:12;;;;;;;;;;;;;;;25.51;38.13;99602.97;4941132;28;19918;-87
2022/04/27 11:44:40;;;;;;;;;;;;;;;25.31;38.81;99588.31;4940517;29;19919;-90
2022/04/27 11:47:25;;;;;;;;;;;;;;;25.74;39.47;99587.63;4934207;29;19923;-88
2022/04/27 11:50:08;;;;;;;;;;;;;;;25.66;39.51;99590.09;4933777;29;19922;-89
2022/04/27 11:52:37;;;;;;;;;;;;;;;25.43;39.33;99584.66;4935171;29;19918;-88
2022/04/27 11:55:12;;;;;;;;;;;;;;;25.52;37.98;99583.94;4947950;28;20278;-86
2022/04/27 11:57:39;;;;;;;;;;;;;;;25.38;39.31;99576.09;4934666;29;20385;-87
2022/04/27 12:00:06;;;;;;;;;;;;;;;25.52;39.05;99577.69;4934111;29;19923;-87
2022/04/27 12:02:33;;;;;;;;;;;;;;;25.47;38.37;99579.88;4933852;29;20014;-87
2022/04/27 12:04:59;;;;;;;;;;;;;;;25.51;37.71;99575.97;4932552;29;20353;-87
2022/04/27 12:07:25;;;;;;;;;;;;;;;25.43;37.83;99570.31;4948561;28;19930;-87
2022/04/27 12:09:57;;;;;;;;;;;;;;;25.57;36.93;99566.53;4931757;29;19922;-87
2022/04/27 12:12:23;;;;;;;;;;;;;;;25.51;38.48;99565.16;4931063;29;19918;-88
2022/04/27 12:14:49;;;;;;;;;;;;;;;25.48;36.60;99563.56;4930115;29;19941;-87
2022/04/27 12:17:33;;;;;;;;;;;;;;;25.72;36.91;99555.34;4930925;29;19919;-87
2022/04/27 12:19:58;;;;;;;;;;;;;;;25.65;36.01;99553.25;4931333;29;19922;-87
2022/04/27 12:22:24;;;;;;;;;;;;;;;25.74;38.11;99547.97;4931187;29;19919;-87
2022/04/27 12:24:49;;;;;;;;;;;;;;;25.71;37.31;99548.22;4944604;28;20293;-86
2022/04/27 12:27:21;;;;;;;;;;;;;;;25.63;36.78;99547.97;4948718;29;19941;-86
2022/04/27 12:29:47;;;;;;;;;;;;;;;25.62;36.45;99538.16;4948477;28;20381;-86
2022/04/27 12:32:12;;;;;;;;;;;;;;;25.79;35.12;99542.19;4950145;28;19950;-86
2022/04/27 12:37:29;;;;;;;;;;;;;;;25.62;36.83;99527.34;4931218;29;19978;-87
2022/04/27 12:39:54;;;;;;;;;;;;;;;25.51;38.72;99522.81;4930618;29;19925;-86
2022/04/27 12:42:21;;;;;;;;;;;;;;;25.45;37.55;99526.00;4930426;29;20401;-87
2022/04/27 12:44:46;;;;;;;;;;;;;;;25.52;38.79;99519.13;4941813;28;19930;-87
2022/04/27 12:47:16;;;;;;;;;;;;;;;25.53;38.29;99519.97;4950063;28;19922;-87
2022/04/27 12:49:42;;;;;;;;;;;;;;;25.56;36.04;99522.44;4948606;28;20431;-87
2022/04/27 12:52:18;;;;;;;;;;;;;;;25.71;36.22;99512.25;4949244;28;19945;-86
2022/04/27 12:54:47;;;;;;;;;;;;;;;25.52;36.66;99504.78;4949601;28;19957;-87
2022/04/27 12:57:13;;;;;;;;;;;;;;;25.36;36.51;99497.91;4948876;28;20396;-87
2022/04/27 12:59:55;;;;;;;;;;;;;;;25.37;36.03;99498.75;4949953;28;19914;-87
2022/04/27 13:02:21;;;;;;;;;;;;;;;25.80;37.56;99498.00;4949764;28;19918;-88
2022/04/27 13:04:47;;;;;;;;;;;;;;;25.71;36.65;99496.03;4949563;29;19961;-88
2022/04/27 13:07:13;;;;;;;;;;;;;;;25.48;37.71;99498.75;4948489;28;20020;-87
2022/04/27 13:12:28;;;;;;;;;;;;;;;25.55;37.56;99493.75;4949206;28;19937;-87